sensor_id;sensor_type;location;lat;lon;timestamp;temperature;humidity
28763;DHT22;15918;51.270;6.522;2023-05-02T00:00:49;16.90;60.30
28763;DHT22;15918;51.270;6.522;2023-05-02T00:03:14;16.90;60.30
28763;DHT22;15918;51.270;6.522;2023-05-02T00:05:41;16.90;60.30
28763;DHT22;15918;51.270;6.522;2023-05-02T00:08:07;16.80;60.10
28763;DHT22;15918;51.270;6.522;2023-05-02T00:10:33;16.80;60.20
28763;DHT22;15918;51.270;6.522;2023-05-02T00:12:59;16.80;60.10
28763;DHT22;15918;51.270;6.522;2023-05-02T00:15:24;16.90;60.20
28763;DHT22;15918;51.270;6.522;2023-05-02T00:17:51;16.80;60.20
28763;DHT22;15918;51.270;6.522;2023-05-02T00:20:17;16.80;60.30
28763;DHT22;15918;51.270;6.522;2023-05-02T00:22:43;16.80;60.20
28763;DHT22;15918;51.270;6.522;2023-05-02T00:25:08;16.80;60.10
28763;DHT22;15918;51.270;6.522;2023-05-02T00:27:34;16.80;60.00
28763;DHT22;15918;51.270;6.522;2023-05-02T00:30:00;16.80;60.00
28763;DHT22;15918;51.270;6.522;2023-05-02T00:32:26;16.70;59.90
28763;DHT22;15918;51.270;6.522;2023-05-02T00:34:52;16.70;60.00
28763;DHT22;15918;51.270;6.522;2023-05-02T00:37:18;16.70;60.00
28763;DHT22;15918;51.270;6.522;2023-05-02T00:39:43;16.70;60.00
28763;DHT22;15918;51.270;6.522;2023-05-02T00:42:09;16.70;60.10
28763;DHT22;15918;51.270;6.522;2023-05-02T00:44:35;16.70;60.20
28763;DHT22;15918;51.270;6.522;2023-05-02T00:47:01;16.70;60.30
28763;DHT22;15918;51.270;6.522;2023-05-02T00:49:27;16.70;60.40
28763;DHT22;15918;51.270;6.522;2023-05-02T00:51:53;16.60;60.40
28763;DHT22;15918;51.270;6.522;2023-05-02T00:54:19;16.70;60.60
28763;DHT22;15918;51.270;6.522;2023-05-02T00:56:44;16.60;60.60
28763;DHT22;15918;51.270;6.522;2023-05-02T00:59:11;16.60;60.60
28763;DHT22;15918;51.270;6.522;2023-05-02T01:15:30;16.60;60.80
28763;DHT22;15918;51.270;6.522;2023-05-02T01:17:58;16.50;61.00
28763;DHT22;15918;51.270;6.522;2023-05-02T01:20:26;16.50;61.10
28763;DHT22;15918;51.270;6.522;2023-05-02T01:22:56;16.50;61.00
28763;DHT22;15918;51.270;6.522;2023-05-02T01:30:26;16.50;61.20
28763;DHT22;15918;51.270;6.522;2023-05-02T01:32:54;16.50;61.30
28763;DHT22;15918;51.270;6.522;2023-05-02T01:35:22;16.50;61.40
28763;DHT22;15918;51.270;6.522;2023-05-02T01:37:48;16.60;61.60
28763;DHT22;15918;51.270;6.522;2023-05-02T01:40:18;16.60;61.70
28763;DHT22;15918;51.270;6.522;2023-05-02T01:42:46;16.50;61.70
28763;DHT22;15918;51.270;6.522;2023-05-02T01:45:13;16.50;61.80
28763;DHT22;15918;51.270;6.522;2023-05-02T01:47:42;16.50;61.90
28763;DHT22;15918;51.270;6.522;2023-05-02T01:50:13;16.50;62.00
28763;DHT22;15918;51.270;6.522;2023-05-02T01:52:41;16.50;62.10
28763;DHT22;15918;51.270;6.522;2023-05-02T01:55:09;16.40;62.20
28763;DHT22;15918;51.270;6.522;2023-05-02T01:57:38;16.40;62.30
28763;DHT22;15918;51.270;6.522;2023-05-02T02:00:05;16.40;62.40
28763;DHT22;15918;51.270;6.522;2023-05-02T02:02:34;16.40;62.40
28763;DHT22;15918;51.270;6.522;2023-05-02T02:05:02;16.40;62.50
28763;DHT22;15918;51.270;6.522;2023-05-02T02:07:29;16.40;62.50
28763;DHT22;15918;51.270;6.522;2023-05-02T02:09:55;16.40;62.60
28763;DHT22;15918;51.270;6.522;2023-05-02T02:12:35;16.40;62.70
28763;DHT22;15918;51.270;6.522;2023-05-02T02:15:08;16.40;62.70
28763;DHT22;15918;51.270;6.522;2023-05-02T02:17:44;16.40;62.70
28763;DHT22;15918;51.270;6.522;2023-05-02T02:20:11;16.40;62.80
28763;DHT22;15918;51.270;6.522;2023-05-02T02:22:39;16.40;62.90
28763;DHT22;15918;51.270;6.522;2023-05-02T02:25:09;16.30;62.90
28763;DHT22;15918;51.270;6.522;2023-05-02T02:27:39;16.40;63.00
28763;DHT22;15918;51.270;6.522;2023-05-02T02:30:07;16.40;62.90
28763;DHT22;15918;51.270;6.522;2023-05-02T02:32:33;16.40;62.90
28763;DHT22;15918;51.270;6.522;2023-05-02T02:34:58;16.40;62.80
28763;DHT22;15918;51.270;6.522;2023-05-02T02:37:51;16.40;62.80
28763;DHT22;15918;51.270;6.522;2023-05-02T02:40:37;16.40;63.50
28763;DHT22;15918;51.270;6.522;2023-05-02T02:43:11;16.40;63.00
28763;DHT22;15918;51.270;6.522;2023-05-02T02:48:49;16.40;63.00
28763;DHT22;15918;51.270;6.522;2023-05-02T02:51:30;16.30;63.20
28763;DHT22;15918;51.270;6.522;2023-05-02T02:54:08;16.30;63.30
28763;DHT22;15918;51.270;6.522;2023-05-02T02:56:39;16.30;63.20
28763;DHT22;15918;51.270;6.522;2023-05-02T02:59:12;16.30;63.20
28763;DHT22;15918;51.270;6.522;2023-05-02T03:01:40;16.30;63.30
28763;DHT22;15918;51.270;6.522;2023-05-02T03:04:06;16.30;63.10
28763;DHT22;15918;51.270;6.522;2023-05-02T03:06:33;16.30;63.10
28763;DHT22;15918;51.270;6.522;2023-05-02T03:08:59;16.30;63.10
28763;DHT22;15918;51.270;6.522;2023-05-02T03:11:24;16.40;63.30
28763;DHT22;15918;51.270;6.522;2023-05-02T03:13:50;16.30;63.20
28763;DHT22;15918;51.270;6.522;2023-05-02T03:16:46;16.40;63.20
28763;DHT22;15918;51.270;6.522;2023-05-02T03:19:12;16.30;63.10
28763;DHT22;15918;51.270;6.522;2023-05-02T03:21:37;16.30;63.40
28763;DHT22;15918;51.270;6.522;2023-05-02T03:24:03;16.40;63.40
28763;DHT22;15918;51.270;6.522;2023-05-02T03:26:29;16.30;64.10
28763;DHT22;15918;51.270;6.522;2023-05-02T03:28:55;16.30;63.30
28763;DHT22;15918;51.270;6.522;2023-05-02T03:31:21;16.30;63.40
28763;DHT22;15918;51.270;6.522;2023-05-02T03:33:48;16.30;63.40
28763;DHT22;15918;51.270;6.522;2023-05-02T03:36:14;16.30;63.50
28763;DHT22;15918;51.270;6.522;2023-05-02T03:38:39;16.30;63.40
28763;DHT22;15918;51.270;6.522;2023-05-02T03:41:05;16.30;63.40
28763;DHT22;15918;51.270;6.522;2023-05-02T03:43:31;16.30;63.30
28763;DHT22;15918;51.270;6.522;2023-05-02T03:45:57;16.30;63.40
28763;DHT22;15918;51.270;6.522;2023-05-02T03:48:28;16.40;63.50
28763;DHT22;15918;51.270;6.522;2023-05-02T03:50:53;16.30;63.40
28763;DHT22;15918;51.270;6.522;2023-05-02T03:53:19;16.30;63.50
28763;DHT22;15918;51.270;6.522;2023-05-02T03:55:45;16.30;63.50
28763;DHT22;15918;51.270;6.522;2023-05-02T03:58:10;16.30;63.70
28763;DHT22;15918;51.270;6.522;2023-05-02T04:00:36;16.30;63.70
28763;DHT22;15918;51.270;6.522;2023-05-02T04:03:05;16.30;63.80
28763;DHT22;15918;51.270;6.522;2023-05-02T04:05:31;16.40;63.80
28763;DHT22;15918;51.270;6.522;2023-05-02T04:07:57;16.30;63.70
28763;DHT22;15918;51.270;6.522;2023-05-02T04:10:22;16.30;64.00
28763;DHT22;15918;51.270;6.522;2023-05-02T04:12:48;16.20;63.30
28763;DHT22;15918;51.270;6.522;2023-05-02T04:15:14;16.30;63.40
28763;DHT22;15918;51.270;6.522;2023-05-02T04:17:40;16.20;63.40
28763;DHT22;15918;51.270;6.522;2023-05-02T04:20:06;16.30;63.50
28763;DHT22;15918;51.270;6.522;2023-05-02T04:22:32;16.20;63.40
28763;DHT22;15918;51.270;6.522;2023-05-02T04:24:58;16.20;63.40
28763;DHT22;15918;51.270;6.522;2023-05-02T04:27:23;16.30;63.30
28763;DHT22;15918;51.270;6.522;2023-05-02T04:29:50;16.20;63.00
28763;DHT22;15918;51.270;6.522;2023-05-02T04:32:16;16.30;63.10
28763;DHT22;15918;51.270;6.522;2023-05-02T04:34:41;16.20;63.00
28763;DHT22;15918;51.270;6.522;2023-05-02T04:37:07;16.20;63.10
28763;DHT22;15918;51.270;6.522;2023-05-02T04:39:33;16.20;63.10
28763;DHT22;15918;51.270;6.522;2023-05-02T04:41:59;16.30;63.10
28763;DHT22;15918;51.270;6.522;2023-05-02T04:44:25;16.20;63.00
28763;DHT22;15918;51.270;6.522;2023-05-02T04:46:51;16.20;63.20
28763;DHT22;15918;51.270;6.522;2023-05-02T04:49:17;16.20;63.30
28763;DHT22;15918;51.270;6.522;2023-05-02T04:51:43;16.20;63.40
28763;DHT22;15918;51.270;6.522;2023-05-02T04:54:09;16.20;63.30
28763;DHT22;15918;51.270;6.522;2023-05-02T04:56:35;16.20;63.20
28763;DHT22;15918;51.270;6.522;2023-05-02T04:59:00;16.10;63.20
28763;DHT22;15918;51.270;6.522;2023-05-02T05:01:26;16.20;63.30
28763;DHT22;15918;51.270;6.522;2023-05-02T05:03:54;16.20;63.40
28763;DHT22;15918;51.270;6.522;2023-05-02T05:06:20;16.10;63.40
28763;DHT22;15918;51.270;6.522;2023-05-02T05:08:47;16.10;63.40
28763;DHT22;15918;51.270;6.522;2023-05-02T05:11:12;16.10;63.40
28763;DHT22;15918;51.270;6.522;2023-05-02T05:13:39;16.10;63.30
28763;DHT22;15918;51.270;6.522;2023-05-02T05:16:04;16.10;63.50
28763;DHT22;15918;51.270;6.522;2023-05-02T05:18:30;16.10;63.70
28763;DHT22;15918;51.270;6.522;2023-05-02T05:20:56;16.10;63.70
28763;DHT22;15918;51.270;6.522;2023-05-02T05:23:22;16.10;63.70
28763;DHT22;15918;51.270;6.522;2023-05-02T05:25:47;16.10;63.80
28763;DHT22;15918;51.270;6.522;2023-05-02T05:28:13;16.10;63.70
28763;DHT22;15918;51.270;6.522;2023-05-02T05:30:39;16.20;63.80
28763;DHT22;15918;51.270;6.522;2023-05-02T05:33:04;16.10;63.70
28763;DHT22;15918;51.270;6.522;2023-05-02T05:35:30;16.10;63.70
28763;DHT22;15918;51.270;6.522;2023-05-02T05:37:57;16.10;63.90
28763;DHT22;15918;51.270;6.522;2023-05-02T05:40:22;16.10;64.00
28763;DHT22;15918;51.270;6.522;2023-05-02T05:42:48;16.10;63.90
28763;DHT22;15918;51.270;6.522;2023-05-02T05:45:15;16.10;63.90
28763;DHT22;15918;51.270;6.522;2023-05-02T05:47:43;16.10;63.90
28763;DHT22;15918;51.270;6.522;2023-05-02T05:50:09;16.10;63.90
28763;DHT22;15918;51.270;6.522;2023-05-02T05:52:35;16.10;64.70
28763;DHT22;15918;51.270;6.522;2023-05-02T05:55:02;16.10;64.10
28763;DHT22;15918;51.270;6.522;2023-05-02T05:57:28;16.10;64.00
28763;DHT22;15918;51.270;6.522;2023-05-02T05:59:54;16.10;63.90
28763;DHT22;15918;51.270;6.522;2023-05-02T06:02:20;16.10;64.60
28763;DHT22;15918;51.270;6.522;2023-05-02T06:04:45;16.10;63.80
28763;DHT22;15918;51.270;6.522;2023-05-02T06:07:11;16.10;63.80
28763;DHT22;15918;51.270;6.522;2023-05-02T06:09:37;16.10;63.70
28763;DHT22;15918;51.270;6.522;2023-05-02T06:12:02;16.10;63.70
28763;DHT22;15918;51.270;6.522;2023-05-02T06:14:28;16.10;63.60
28763;DHT22;15918;51.270;6.522;2023-05-02T06:16:53;16.10;63.60
28763;DHT22;15918;51.270;6.522;2023-05-02T06:19:19;16.10;63.50
28763;DHT22;15918;51.270;6.522;2023-05-02T06:21:45;16.10;63.50
28763;DHT22;15918;51.270;6.522;2023-05-02T06:24:10;16.10;63.50
28763;DHT22;15918;51.270;6.522;2023-05-02T06:26:36;16.10;63.50
28763;DHT22;15918;51.270;6.522;2023-05-02T06:29:01;16.10;63.50
28763;DHT22;15918;51.270;6.522;2023-05-02T06:31:28;16.10;63.50
28763;DHT22;15918;51.270;6.522;2023-05-02T06:33:53;16.10;63.40
28763;DHT22;15918;51.270;6.522;2023-05-02T06:36:19;16.10;63.40
28763;DHT22;15918;51.270;6.522;2023-05-02T06:38:44;16.00;63.30
28763;DHT22;15918;51.270;6.522;2023-05-02T06:41:13;16.10;63.40
28763;DHT22;15918;51.270;6.522;2023-05-02T06:43:39;16.00;63.30
28763;DHT22;15918;51.270;6.522;2023-05-02T06:46:05;16.10;63.30
28763;DHT22;15918;51.270;6.522;2023-05-02T06:48:30;16.00;63.10
28763;DHT22;15918;51.270;6.522;2023-05-02T06:50:56;16.10;63.20
28763;DHT22;15918;51.270;6.522;2023-05-02T06:53:22;16.10;63.20
28763;DHT22;15918;51.270;6.522;2023-05-02T06:55:47;16.10;63.20
28763;DHT22;15918;51.270;6.522;2023-05-02T06:58:13;16.10;63.10
28763;DHT22;15918;51.270;6.522;2023-05-02T07:00:39;16.10;63.10
28763;DHT22;15918;51.270;6.522;2023-05-02T07:03:05;16.10;63.00
28763;DHT22;15918;51.270;6.522;2023-05-02T07:05:30;16.10;62.90
28763;DHT22;15918;51.270;6.522;2023-05-02T07:07:56;16.10;62.90
28763;DHT22;15918;51.270;6.522;2023-05-02T07:10:22;16.10;62.90
28763;DHT22;15918;51.270;6.522;2023-05-02T07:12:47;16.10;62.90
28763;DHT22;15918;51.270;6.522;2023-05-02T07:15:13;16.10;62.80
28763;DHT22;15918;51.270;6.522;2023-05-02T07:17:40;16.10;62.70
28763;DHT22;15918;51.270;6.522;2023-05-02T07:20:07;16.10;62.70
28763;DHT22;15918;51.270;6.522;2023-05-02T07:22:33;16.10;62.60
28763;DHT22;15918;51.270;6.522;2023-05-02T07:25:00;16.10;62.50
28763;DHT22;15918;51.270;6.522;2023-05-02T07:27:26;16.10;62.50
28763;DHT22;15918;51.270;6.522;2023-05-02T07:29:52;16.10;62.50
28763;DHT22;15918;51.270;6.522;2023-05-02T07:32:18;16.10;62.40
28763;DHT22;15918;51.270;6.522;2023-05-02T07:34:44;16.10;62.30
28763;DHT22;15918;51.270;6.522;2023-05-02T07:37:09;16.20;62.20
28763;DHT22;15918;51.270;6.522;2023-05-02T07:39:36;16.10;62.00
28763;DHT22;15918;51.270;6.522;2023-05-02T07:42:02;16.10;61.90
28763;DHT22;15918;51.270;6.522;2023-05-02T07:44:28;16.10;61.70
28763;DHT22;15918;51.270;6.522;2023-05-02T07:46:53;16.10;61.50
28763;DHT22;15918;51.270;6.522;2023-05-02T07:49:19;16.10;61.20
28763;DHT22;15918;51.270;6.522;2023-05-02T07:51:45;16.10;61.10
28763;DHT22;15918;51.270;6.522;2023-05-02T07:54:18;16.10;60.80
28763;DHT22;15918;51.270;6.522;2023-05-02T07:56:44;16.10;60.50
28763;DHT22;15918;51.270;6.522;2023-05-02T07:59:10;16.10;60.50
28763;DHT22;15918;51.270;6.522;2023-05-02T08:01:36;16.10;60.30
28763;DHT22;15918;51.270;6.522;2023-05-02T08:04:02;16.00;60.10
28763;DHT22;15918;51.270;6.522;2023-05-02T08:06:29;16.00;60.00
28763;DHT22;15918;51.270;6.522;2023-05-02T08:08:55;16.00;60.00
28763;DHT22;15918;51.270;6.522;2023-05-02T08:11:21;16.10;60.00
28763;DHT22;15918;51.270;6.522;2023-05-02T08:13:46;16.10;60.00
28763;DHT22;15918;51.270;6.522;2023-05-02T08:16:12;16.10;59.80
28763;DHT22;15918;51.270;6.522;2023-05-02T08:18:38;16.00;59.70
28763;DHT22;15918;51.270;6.522;2023-05-02T08:21:04;16.00;59.60
28763;DHT22;15918;51.270;6.522;2023-05-02T08:23:30;16.00;59.50
28763;DHT22;15918;51.270;6.522;2023-05-02T08:25:55;16.00;59.50
28763;DHT22;15918;51.270;6.522;2023-05-02T08:28:21;16.00;59.50
28763;DHT22;15918;51.270;6.522;2023-05-02T08:30:46;16.00;59.60
28763;DHT22;15918;51.270;6.522;2023-05-02T08:33:13;16.10;59.70
28763;DHT22;15918;51.270;6.522;2023-05-02T08:35:39;16.10;59.60
28763;DHT22;15918;51.270;6.522;2023-05-02T08:38:05;16.00;59.60
28763;DHT22;15918;51.270;6.522;2023-05-02T08:40:34;16.00;59.50
28763;DHT22;15918;51.270;6.522;2023-05-02T08:43:01;16.10;59.60
28763;DHT22;15918;51.270;6.522;2023-05-02T08:45:30;16.00;59.60
28763;DHT22;15918;51.270;6.522;2023-05-02T08:48:05;16.00;59.60
28763;DHT22;15918;51.270;6.522;2023-05-02T08:50:39;16.00;59.50
28763;DHT22;15918;51.270;6.522;2023-05-02T08:53:07;16.00;59.30
28763;DHT22;15918;51.270;6.522;2023-05-02T08:55:36;16.00;59.20
28763;DHT22;15918;51.270;6.522;2023-05-02T08:58:05;16.00;59.00
28763;DHT22;15918;51.270;6.522;2023-05-02T09:00:32;16.00;58.80
28763;DHT22;15918;51.270;6.522;2023-05-02T09:05:41;16.00;58.60
28763;DHT22;15918;51.270;6.522;2023-05-02T09:08:07;16.00;58.60
28763;DHT22;15918;51.270;6.522;2023-05-02T09:10:34;16.00;59.10
28763;DHT22;15918;51.270;6.522;2023-05-02T09:13:34;16.00;58.40
28763;DHT22;15918;51.270;6.522;2023-05-02T09:16:04;16.00;58.10
28763;DHT22;15918;51.270;6.522;2023-05-02T09:18:40;15.90;58.20
28763;DHT22;15918;51.270;6.522;2023-05-02T09:21:11;15.90;58.10
28763;DHT22;15918;51.270;6.522;2023-05-02T09:23:43;15.90;58.10
28763;DHT22;15918;51.270;6.522;2023-05-02T09:28:50;15.90;57.80
28763;DHT22;15918;51.270;6.522;2023-05-02T09:31:22;15.90;57.70
28763;DHT22;15918;51.270;6.522;2023-05-02T09:33:50;16.00;57.80
28763;DHT22;15918;51.270;6.522;2023-05-02T09:36:18;15.90;57.70
28763;DHT22;15918;51.270;6.522;2023-05-02T09:38:47;16.00;57.60
28763;DHT22;15918;51.270;6.522;2023-05-02T09:41:13;16.00;57.60
28763;DHT22;15918;51.270;6.522;2023-05-02T09:43:39;16.00;57.50
28763;DHT22;15918;51.270;6.522;2023-05-02T09:46:10;16.00;57.50
28763;DHT22;15918;51.270;6.522;2023-05-02T09:48:54;16.00;57.40
28763;DHT22;15918;51.270;6.522;2023-05-02T09:51:21;16.00;57.30
28763;DHT22;15918;51.270;6.522;2023-05-02T09:53:48;16.00;57.50
28763;DHT22;15918;51.270;6.522;2023-05-02T09:56:14;16.00;57.40
28763;DHT22;15918;51.270;6.522;2023-05-02T09:58:40;16.10;57.50
28763;DHT22;15918;51.270;6.522;2023-05-02T10:01:06;16.00;57.30
28763;DHT22;15918;51.270;6.522;2023-05-02T10:03:36;16.00;57.30
28763;DHT22;15918;51.270;6.522;2023-05-02T10:06:03;16.10;57.20
28763;DHT22;15918;51.270;6.522;2023-05-02T10:08:32;16.10;57.20
28763;DHT22;15918;51.270;6.522;2023-05-02T10:10:58;16.10;57.10
28763;DHT22;15918;51.270;6.522;2023-05-02T10:13:26;16.10;57.10
28763;DHT22;15918;51.270;6.522;2023-05-02T10:16:01;16.10;56.90
28763;DHT22;15918;51.270;6.522;2023-05-02T10:18:46;16.10;56.80
28763;DHT22;15918;51.270;6.522;2023-05-02T10:21:23;16.20;56.60
28763;DHT22;15918;51.270;6.522;2023-05-02T10:23:50;16.20;56.50
28763;DHT22;15918;51.270;6.522;2023-05-02T10:26:17;16.20;56.40
28763;DHT22;15918;51.270;6.522;2023-05-02T10:28:45;16.20;56.20
28763;DHT22;15918;51.270;6.522;2023-05-02T10:31:13;16.20;56.10
28763;DHT22;15918;51.270;6.522;2023-05-02T10:33:39;16.20;56.00
28763;DHT22;15918;51.270;6.522;2023-05-02T10:36:08;16.20;55.90
28763;DHT22;15918;51.270;6.522;2023-05-02T10:38:35;16.30;55.80
28763;DHT22;15918;51.270;6.522;2023-05-02T10:41:07;16.30;55.80
28763;DHT22;15918;51.270;6.522;2023-05-02T10:43:35;16.30;55.70
28763;DHT22;15918;51.270;6.522;2023-05-02T10:46:02;16.30;55.80
28763;DHT22;15918;51.270;6.522;2023-05-02T10:48:28;16.30;55.80
28763;DHT22;15918;51.270;6.522;2023-05-02T10:50:58;16.40;55.70
28763;DHT22;15918;51.270;6.522;2023-05-02T10:53:30;16.40;55.60
28763;DHT22;15918;51.270;6.522;2023-05-02T10:56:21;16.40;55.60
28763;DHT22;15918;51.270;6.522;2023-05-02T10:58:48;16.50;55.40
28763;DHT22;15918;51.270;6.522;2023-05-02T11:04:04;16.50;54.00
28763;DHT22;15918;51.270;6.522;2023-05-02T11:11:47;16.70;53.60
28763;DHT22;15918;51.270;6.522;2023-05-02T11:19:24;16.70;53.30
28763;DHT22;15918;51.270;6.522;2023-05-02T11:21:50;16.70;53.20
28763;DHT22;15918;51.270;6.522;2023-05-02T11:24:41;16.70;53.20
28763;DHT22;15918;51.270;6.522;2023-05-02T11:29:57;16.90;53.40
28763;DHT22;15918;51.270;6.522;2023-05-02T11:32:24;16.80;53.30
28763;DHT22;15918;51.270;6.522;2023-05-02T11:34:51;16.90;53.30
28763;DHT22;15918;51.270;6.522;2023-05-02T11:37:19;16.90;53.10
28763;DHT22;15918;51.270;6.522;2023-05-02T11:39:45;16.90;53.00
28763;DHT22;15918;51.270;6.522;2023-05-02T11:42:30;16.90;53.00
28763;DHT22;15918;51.270;6.522;2023-05-02T11:44:58;17.00;52.90
28763;DHT22;15918;51.270;6.522;2023-05-02T11:47:25;17.00;52.90
28763;DHT22;15918;51.270;6.522;2023-05-02T11:49:51;17.00;52.80
28763;DHT22;15918;51.270;6.522;2023-05-02T11:52:17;17.00;52.80
28763;DHT22;15918;51.270;6.522;2023-05-02T11:54:42;17.10;52.80
28763;DHT22;15918;51.270;6.522;2023-05-02T11:57:08;17.10;52.70
28763;DHT22;15918;51.270;6.522;2023-05-02T11:59:49;17.10;52.70
28763;DHT22;15918;51.270;6.522;2023-05-02T12:02:15;17.10;52.50
28763;DHT22;15918;51.270;6.522;2023-05-02T12:04:44;17.10;52.50
28763;DHT22;15918;51.270;6.522;2023-05-02T12:07:09;17.10;52.30
28763;DHT22;15918;51.270;6.522;2023-05-02T12:09:35;17.10;52.20
28763;DHT22;15918;51.270;6.522;2023-05-02T12:12:01;17.20;51.90
28763;DHT22;15918;51.270;6.522;2023-05-02T12:14:31;17.10;51.70
28763;DHT22;15918;51.270;6.522;2023-05-02T12:16:58;17.20;51.60
28763;DHT22;15918;51.270;6.522;2023-05-02T12:19:25;17.20;51.60
28763;DHT22;15918;51.270;6.522;2023-05-02T12:21:51;17.20;52.00
28763;DHT22;15918;51.270;6.522;2023-05-02T12:24:17;17.20;51.40
28763;DHT22;15918;51.270;6.522;2023-05-02T12:26:43;17.30;51.40
28763;DHT22;15918;51.270;6.522;2023-05-02T12:29:09;17.20;51.50
28763;DHT22;15918;51.270;6.522;2023-05-02T12:31:34;17.20;51.30
28763;DHT22;15918;51.270;6.522;2023-05-02T12:34:00;17.20;51.00
28763;DHT22;15918;51.270;6.522;2023-05-02T12:36:27;17.20;50.80
28763;DHT22;15918;51.270;6.522;2023-05-02T12:38:57;17.20;50.70
28763;DHT22;15918;51.270;6.522;2023-05-02T12:41:45;17.30;50.70
28763;DHT22;15918;51.270;6.522;2023-05-02T12:44:10;17.30;50.50
28763;DHT22;15918;51.270;6.522;2023-05-02T12:46:36;17.30;50.60
28763;DHT22;15918;51.270;6.522;2023-05-02T12:49:08;17.30;50.70
28763;DHT22;15918;51.270;6.522;2023-05-02T12:51:35;17.30;50.70
28763;DHT22;15918;51.270;6.522;2023-05-02T12:54:01;17.40;50.80
28763;DHT22;15918;51.270;6.522;2023-05-02T12:56:27;17.40;50.70
28763;DHT22;15918;51.270;6.522;2023-05-02T12:58:56;17.40;50.60
28763;DHT22;15918;51.270;6.522;2023-05-02T13:01:25;17.40;50.50
28763;DHT22;15918;51.270;6.522;2023-05-02T13:03:51;17.40;50.50
28763;DHT22;15918;51.270;6.522;2023-05-02T13:06:17;17.40;50.20
28763;DHT22;15918;51.270;6.522;2023-05-02T13:08:43;17.40;50.10
28763;DHT22;15918;51.270;6.522;2023-05-02T13:11:08;17.40;50.10
28763;DHT22;15918;51.270;6.522;2023-05-02T13:13:34;17.50;50.00
28763;DHT22;15918;51.270;6.522;2023-05-02T13:16:00;17.50;50.00
28763;DHT22;15918;51.270;6.522;2023-05-02T13:18:25;17.50;50.00
28763;DHT22;15918;51.270;6.522;2023-05-02T13:20:52;17.50;50.00
28763;DHT22;15918;51.270;6.522;2023-05-02T13:23:18;17.60;50.00
28763;DHT22;15918;51.270;6.522;2023-05-02T13:25:44;17.50;50.00
28763;DHT22;15918;51.270;6.522;2023-05-02T13:28:09;17.50;49.70
28763;DHT22;15918;51.270;6.522;2023-05-02T13:30:35;17.60;49.60
28763;DHT22;15918;51.270;6.522;2023-05-02T13:33:01;17.60;49.70
28763;DHT22;15918;51.270;6.522;2023-05-02T13:35:26;17.60;49.60
28763;DHT22;15918;51.270;6.522;2023-05-02T13:37:52;17.60;49.40
28763;DHT22;15918;51.270;6.522;2023-05-02T13:40:17;17.60;49.40
28763;DHT22;15918;51.270;6.522;2023-05-02T13:42:43;17.60;49.30
28763;DHT22;15918;51.270;6.522;2023-05-02T13:45:09;17.50;49.20
28763;DHT22;15918;51.270;6.522;2023-05-02T13:47:35;17.50;49.20
28763;DHT22;15918;51.270;6.522;2023-05-02T13:50:01;17.60;49.10
28763;DHT22;15918;51.270;6.522;2023-05-02T13:52:27;17.60;49.70
28763;DHT22;15918;51.270;6.522;2023-05-02T13:54:53;17.60;49.20
28763;DHT22;15918;51.270;6.522;2023-05-02T13:57:18;17.60;49.10
28763;DHT22;15918;51.270;6.522;2023-05-02T13:59:44;17.60;49.10
28763;DHT22;15918;51.270;6.522;2023-05-02T14:02:10;17.60;49.20
28763;DHT22;15918;51.270;6.522;2023-05-02T14:04:35;17.60;49.00
28763;DHT22;15918;51.270;6.522;2023-05-02T14:07:01;17.60;49.00
28763;DHT22;15918;51.270;6.522;2023-05-02T14:09:26;17.60;48.80
28763;DHT22;15918;51.270;6.522;2023-05-02T14:11:52;17.60;48.60
28763;DHT22;15918;51.270;6.522;2023-05-02T14:14:18;17.60;49.30
28763;DHT22;15918;51.270;6.522;2023-05-02T14:16:43;17.60;48.70
28763;DHT22;15918;51.270;6.522;2023-05-02T14:19:09;17.60;48.30
28763;DHT22;15918;51.270;6.522;2023-05-02T14:21:35;17.60;48.30
28763;DHT22;15918;51.270;6.522;2023-05-02T14:24:03;17.60;48.20
28763;DHT22;15918;51.270;6.522;2023-05-02T14:26:29;17.60;48.10
28763;DHT22;15918;51.270;6.522;2023-05-02T14:28:54;17.60;48.10
28763;DHT22;15918;51.270;6.522;2023-05-02T14:31:21;17.60;48.10
28763;DHT22;15918;51.270;6.522;2023-05-02T14:33:46;17.60;48.20
28763;DHT22;15918;51.270;6.522;2023-05-02T14:36:12;17.60;48.40
28763;DHT22;15918;51.270;6.522;2023-05-02T14:38:37;17.60;48.30
28763;DHT22;15918;51.270;6.522;2023-05-02T14:41:03;17.50;48.10
28763;DHT22;15918;51.270;6.522;2023-05-02T14:43:29;17.50;48.10
28763;DHT22;15918;51.270;6.522;2023-05-02T14:45:55;17.50;48.00
28763;DHT22;15918;51.270;6.522;2023-05-02T14:48:22;17.50;48.10
28763;DHT22;15918;51.270;6.522;2023-05-02T14:50:47;17.50;48.20
28763;DHT22;15918;51.270;6.522;2023-05-02T14:53:13;17.50;48.20
28763;DHT22;15918;51.270;6.522;2023-05-02T14:55:39;17.50;48.20
28763;DHT22;15918;51.270;6.522;2023-05-02T14:58:05;17.50;48.20
28763;DHT22;15918;51.270;6.522;2023-05-02T15:00:33;17.40;48.20
28763;DHT22;15918;51.270;6.522;2023-05-02T15:03:00;17.50;48.20
28763;DHT22;15918;51.270;6.522;2023-05-02T15:05:26;17.50;48.10
28763;DHT22;15918;51.270;6.522;2023-05-02T15:07:52;17.40;48.10
28763;DHT22;15918;51.270;6.522;2023-05-02T15:10:18;17.50;48.20
28763;DHT22;15918;51.270;6.522;2023-05-02T15:12:43;17.40;48.00
28763;DHT22;15918;51.270;6.522;2023-05-02T15:15:11;17.40;47.80
28763;DHT22;15918;51.270;6.522;2023-05-02T15:17:36;17.40;47.50
28763;DHT22;15918;51.270;6.522;2023-05-02T15:20:02;17.40;47.50
28763;DHT22;15918;51.270;6.522;2023-05-02T15:22:28;17.40;47.50
28763;DHT22;15918;51.270;6.522;2023-05-02T15:24:54;17.40;47.50
28763;DHT22;15918;51.270;6.522;2023-05-02T15:27:19;17.40;47.60
28763;DHT22;15918;51.270;6.522;2023-05-02T15:29:45;17.40;47.70
28763;DHT22;15918;51.270;6.522;2023-05-02T15:32:11;17.40;47.60
28763;DHT22;15918;51.270;6.522;2023-05-02T15:34:36;17.40;47.50
28763;DHT22;15918;51.270;6.522;2023-05-02T15:37:02;17.40;47.50
28763;DHT22;15918;51.270;6.522;2023-05-02T15:39:28;17.40;47.60
28763;DHT22;15918;51.270;6.522;2023-05-02T15:41:53;17.40;47.70
28763;DHT22;15918;51.270;6.522;2023-05-02T15:44:19;17.40;47.80
28763;DHT22;15918;51.270;6.522;2023-05-02T15:46:45;17.30;47.70
28763;DHT22;15918;51.270;6.522;2023-05-02T15:49:11;17.30;47.80
28763;DHT22;15918;51.270;6.522;2023-05-02T15:51:38;17.30;47.60
28763;DHT22;15918;51.270;6.522;2023-05-02T15:54:03;17.30;47.70
28763;DHT22;15918;51.270;6.522;2023-05-02T15:56:31;17.30;47.70
28763;DHT22;15918;51.270;6.522;2023-05-02T15:58:56;17.30;47.80
28763;DHT22;15918;51.270;6.522;2023-05-02T16:01:22;17.30;47.90
28763;DHT22;15918;51.270;6.522;2023-05-02T16:03:48;17.30;48.00
28763;DHT22;15918;51.270;6.522;2023-05-02T16:06:14;17.20;47.80
28763;DHT22;15918;51.270;6.522;2023-05-02T16:08:41;17.30;47.90
28763;DHT22;15918;51.270;6.522;2023-05-02T16:11:07;17.30;47.80
28763;DHT22;15918;51.270;6.522;2023-05-02T16:13:33;17.30;47.90